sensor_id;sensor_type;location;lat;lon;timestamp;P1;durP1;ratioP1;P2;durP2;ratioP2
77214;SDS011;66210;53.282;9.864;2023-09-12T00:01:04;8.32;;;5.70;;
77214;SDS011;66210;53.282;9.864;2023-09-12T00:03:32;13.07;;;6.35;;
77214;SDS011;66210;53.282;9.864;2023-09-12T00:06:01;11.02;;;6.70;;
77214;SDS011;66210;53.282;9.864;2023-09-12T00:08:29;10.70;;;6.03;;
77214;SDS011;66210;53.282;9.864;2023-09-12T00:10:59;13.63;;;6.25;;
77214;SDS011;66210;53.282;9.864;2023-09-12T00:13:28;10.63;;;6.13;;
77214;SDS011;66210;53.282;9.864;2023-09-12T00:15:56;15.20;;;7.60;;
77214;SDS011;66210;53.282;9.864;2023-09-12T00:18:23;11.68;;;8.40;;
77214;SDS011;66210;53.282;9.864;2023-09-12T00:20:50;25.80;;;16.65;;
77214;SDS011;66210;53.282;9.864;2023-09-12T00:23:18;15.32;;;10.27;;
77214;SDS011;66210;53.282;9.864;2023-09-12T00:25:45;18.27;;;11.88;;
77214;SDS011;66210;53.282;9.864;2023-09-12T00:28:12;26.23;;;15.73;;
77214;SDS011;66210;53.282;9.864;2023-09-12T00:30:38;13.48;;;9.77;;
77214;SDS011;66210;53.282;9.864;2023-09-12T00:33:05;18.25;;;11.40;;
77214;SDS011;66210;53.282;9.864;2023-09-12T00:35:32;30.48;;;17.95;;
77214;SDS011;66210;53.282;9.864;2023-09-12T00:37:59;31.30;;;18.40;;
77214;SDS011;66210;53.282;9.864;2023-09-12T00:40:26;39.67;;;20.95;;
77214;SDS011;66210;53.282;9.864;2023-09-12T00:42:52;32.80;;;19.92;;
77214;SDS011;66210;53.282;9.864;2023-09-12T00:45:19;37.47;;;20.17;;
77214;SDS011;66210;53.282;9.864;2023-09-12T00:47:46;34.95;;;21.42;;
77214;SDS011;66210;53.282;9.864;2023-09-12T00:50:17;35.05;;;20.67;;
77214;SDS011;66210;53.282;9.864;2023-09-12T00:52:47;42.05;;;23.13;;
77214;SDS011;66210;53.282;9.864;2023-09-12T00:55:14;30.50;;;18.92;;
77214;SDS011;66210;53.282;9.864;2023-09-12T00:57:41;31.40;;;18.75;;
77214;SDS011;66210;53.282;9.864;2023-09-12T01:00:10;33.20;;;19.38;;
77214;SDS011;66210;53.282;9.864;2023-09-12T01:02:39;33.90;;;20.15;;
77214;SDS011;66210;53.282;9.864;2023-09-12T01:05:07;36.05;;;21.63;;
77214;SDS011;66210;53.282;9.864;2023-09-12T01:07:36;39.17;;;21.05;;
77214;SDS011;66210;53.282;9.864;2023-09-12T01:10:04;33.17;;;19.52;;
77214;SDS011;66210;53.282;9.864;2023-09-12T01:12:32;24.60;;;14.40;;
77214;SDS011;66210;53.282;9.864;2023-09-12T01:14:59;38.30;;;22.17;;
77214;SDS011;66210;53.282;9.864;2023-09-12T01:17:26;37.00;;;20.27;;
77214;SDS011;66210;53.282;9.864;2023-09-12T01:19:54;28.08;;;18.00;;
77214;SDS011;66210;53.282;9.864;2023-09-12T01:28:14;48.90;;;24.58;;
77214;SDS011;66210;53.282;9.864;2023-09-12T01:30:43;42.72;;;24.90;;
77214;SDS011;66210;53.282;9.864;2023-09-12T01:33:12;36.60;;;23.05;;
77214;SDS011;66210;53.282;9.864;2023-09-12T01:35:39;51.90;;;27.08;;
77214;SDS011;66210;53.282;9.864;2023-09-12T01:38:06;50.55;;;27.42;;
77214;SDS011;66210;53.282;9.864;2023-09-12T01:40:40;43.55;;;26.80;;
77214;SDS011;66210;53.282;9.864;2023-09-12T01:43:13;48.75;;;26.27;;
77214;SDS011;66210;53.282;9.864;2023-09-12T01:45:43;50.75;;;26.92;;
77214;SDS011;66210;53.282;9.864;2023-09-12T01:48:12;47.67;;;26.23;;
77214;SDS011;66210;53.282;9.864;2023-09-12T01:50:40;42.72;;;24.15;;
77214;SDS011;66210;53.282;9.864;2023-09-12T01:53:07;38.25;;;22.27;;
77214;SDS011;66210;53.282;9.864;2023-09-12T01:55:34;38.30;;;21.75;;
77214;SDS011;66210;53.282;9.864;2023-09-12T01:58:02;41.28;;;23.35;;
77214;SDS011;66210;53.282;9.864;2023-09-12T02:00:29;37.70;;;21.60;;
77214;SDS011;66210;53.282;9.864;2023-09-12T02:02:56;37.00;;;19.83;;
77214;SDS011;66210;53.282;9.864;2023-09-12T02:05:23;35.10;;;18.58;;
77214;SDS011;66210;53.282;9.864;2023-09-12T02:07:50;29.90;;;16.45;;
77214;SDS011;66210;53.282;9.864;2023-09-12T02:10:17;26.67;;;15.80;;
77214;SDS011;66210;53.282;9.864;2023-09-12T02:12:44;19.05;;;13.68;;
77214;SDS011;66210;53.282;9.864;2023-09-12T02:15:10;24.27;;;14.95;;
77214;SDS011;66210;53.282;9.864;2023-09-12T02:17:39;30.52;;;17.52;;
77214;SDS011;66210;53.282;9.864;2023-09-12T02:20:08;35.78;;;20.17;;
77214;SDS011;66210;53.282;9.864;2023-09-12T02:22:36;34.67;;;21.02;;
77214;SDS011;66210;53.282;9.864;2023-09-12T02:25:03;47.60;;;25.25;;
77214;SDS011;66210;53.282;9.864;2023-09-12T02:27:31;45.78;;;23.88;;
77214;SDS011;66210;53.282;9.864;2023-09-12T02:29:58;39.70;;;21.75;;
77214;SDS011;66210;53.282;9.864;2023-09-12T02:32:25;36.60;;;20.60;;
77214;SDS011;66210;53.282;9.864;2023-09-12T02:34:52;39.30;;;22.80;;
77214;SDS011;66210;53.282;9.864;2023-09-12T02:37:19;37.78;;;20.02;;
77214;SDS011;66210;53.282;9.864;2023-09-12T02:39:46;38.75;;;24.35;;
77214;SDS011;66210;53.282;9.864;2023-09-12T02:42:13;39.45;;;24.73;;
77214;SDS011;66210;53.282;9.864;2023-09-12T02:44:40;45.00;;;26.23;;
77214;SDS011;66210;53.282;9.864;2023-09-12T02:47:07;49.08;;;26.95;;
77214;SDS011;66210;53.282;9.864;2023-09-12T02:49:34;42.55;;;25.25;;
77214;SDS011;66210;53.282;9.864;2023-09-12T02:52:00;37.83;;;22.42;;
77214;SDS011;66210;53.282;9.864;2023-09-12T02:54:27;38.13;;;22.20;;
77214;SDS011;66210;53.282;9.864;2023-09-12T02:56:54;45.15;;;24.88;;
77214;SDS011;66210;53.282;9.864;2023-09-12T02:59:21;47.13;;;26.95;;
77214;SDS011;66210;53.282;9.864;2023-09-12T03:01:47;40.22;;;24.60;;
77214;SDS011;66210;53.282;9.864;2023-09-12T03:04:14;31.05;;;18.27;;
77214;SDS011;66210;53.282;9.864;2023-09-12T03:06:41;44.95;;;25.50;;
77214;SDS011;66210;53.282;9.864;2023-09-12T03:09:08;36.05;;;21.73;;
77214;SDS011;66210;53.282;9.864;2023-09-12T03:11:35;37.08;;;21.38;;
77214;SDS011;66210;53.282;9.864;2023-09-12T03:14:02;47.05;;;27.15;;
77214;SDS011;66210;53.282;9.864;2023-09-12T03:16:29;57.03;;;29.38;;
77214;SDS011;66210;53.282;9.864;2023-09-12T03:18:56;45.95;;;25.27;;
77214;SDS011;66210;53.282;9.864;2023-09-12T03:21:23;50.42;;;26.88;;
77214;SDS011;66210;53.282;9.864;2023-09-12T03:23:50;42.17;;;25.08;;
77214;SDS011;66210;53.282;9.864;2023-09-12T03:26:17;38.45;;;22.75;;
77214;SDS011;66210;53.282;9.864;2023-09-12T03:28:44;46.35;;;27.50;;
77214;SDS011;66210;53.282;9.864;2023-09-12T03:31:11;48.50;;;28.95;;
77214;SDS011;66210;53.282;9.864;2023-09-12T03:33:40;51.90;;;28.25;;
77214;SDS011;66210;53.282;9.864;2023-09-12T03:36:08;36.00;;;20.58;;
77214;SDS011;66210;53.282;9.864;2023-09-12T03:38:36;35.15;;;20.35;;
77214;SDS011;66210;53.282;9.864;2023-09-12T03:41:03;48.13;;;27.52;;
77214;SDS011;66210;53.282;9.864;2023-09-12T03:43:30;50.97;;;27.52;;
77214;SDS011;66210;53.282;9.864;2023-09-12T03:45:57;45.28;;;26.77;;
77214;SDS011;66210;53.282;9.864;2023-09-12T03:48:24;49.28;;;27.08;;
77214;SDS011;66210;53.282;9.864;2023-09-12T03:50:51;44.75;;;28.55;;
77214;SDS011;66210;53.282;9.864;2023-09-12T03:53:18;39.58;;;22.48;;
77214;SDS011;66210;53.282;9.864;2023-09-12T03:55:44;29.05;;;18.40;;
77214;SDS011;66210;53.282;9.864;2023-09-12T03:58:11;48.63;;;27.70;;
77214;SDS011;66210;53.282;9.864;2023-09-12T04:00:38;40.85;;;26.42;;
77214;SDS011;66210;53.282;9.864;2023-09-12T04:03:05;42.75;;;24.63;;
77214;SDS011;66210;53.282;9.864;2023-09-12T04:05:32;44.25;;;26.60;;
77214;SDS011;66210;53.282;9.864;2023-09-12T04:07:59;43.28;;;26.42;;
77214;SDS011;66210;53.282;9.864;2023-09-12T04:10:25;37.33;;;22.08;;
77214;SDS011;66210;53.282;9.864;2023-09-12T04:12:52;41.05;;;25.15;;
77214;SDS011;66210;53.282;9.864;2023-09-12T04:15:19;41.17;;;25.73;;
77214;SDS011;66210;53.282;9.864;2023-09-12T04:17:46;42.42;;;26.20;;
77214;SDS011;66210;53.282;9.864;2023-09-12T04:20:13;31.15;;;20.00;;
77214;SDS011;66210;53.282;9.864;2023-09-12T04:22:43;40.15;;;25.23;;
77214;SDS011;66210;53.282;9.864;2023-09-12T04:25:09;43.63;;;27.42;;
77214;SDS011;66210;53.282;9.864;2023-09-12T04:27:36;42.33;;;25.63;;
77214;SDS011;66210;53.282;9.864;2023-09-12T04:30:03;42.55;;;25.23;;
77214;SDS011;66210;53.282;9.864;2023-09-12T04:32:31;33.08;;;21.63;;
77214;SDS011;66210;53.282;9.864;2023-09-12T04:34:57;39.95;;;24.15;;
77214;SDS011;66210;53.282;9.864;2023-09-12T04:37:24;38.05;;;25.00;;
77214;SDS011;66210;53.282;9.864;2023-09-12T04:39:51;46.08;;;27.13;;
77214;SDS011;66210;53.282;9.864;2023-09-12T04:42:18;46.00;;;26.92;;
77214;SDS011;66210;53.282;9.864;2023-09-12T04:44:45;41.10;;;26.42;;
77214;SDS011;66210;53.282;9.864;2023-09-12T04:47:12;41.85;;;26.20;;
77214;SDS011;66210;53.282;9.864;2023-09-12T04:49:39;47.15;;;28.40;;
77214;SDS011;66210;53.282;9.864;2023-09-12T04:52:06;47.17;;;29.33;;
77214;SDS011;66210;53.282;9.864;2023-09-12T04:54:33;42.30;;;24.98;;
77214;SDS011;66210;53.282;9.864;2023-09-12T04:57:00;46.67;;;28.60;;
77214;SDS011;66210;53.282;9.864;2023-09-12T04:59:26;45.28;;;29.00;;
77214;SDS011;66210;53.282;9.864;2023-09-12T05:01:53;48.50;;;30.17;;
77214;SDS011;66210;53.282;9.864;2023-09-12T05:04:20;47.70;;;28.80;;
77214;SDS011;66210;53.282;9.864;2023-09-12T05:06:47;45.67;;;28.85;;
77214;SDS011;66210;53.282;9.864;2023-09-12T05:09:14;50.20;;;29.05;;
77214;SDS011;66210;53.282;9.864;2023-09-12T05:11:41;37.60;;;21.75;;
77214;SDS011;66210;53.282;9.864;2023-09-12T05:14:09;45.38;;;27.42;;
77214;SDS011;66210;53.282;9.864;2023-09-12T05:16:35;44.45;;;26.13;;
77214;SDS011;66210;53.282;9.864;2023-09-12T05:19:02;45.88;;;28.33;;
77214;SDS011;66210;53.282;9.864;2023-09-12T05:21:30;44.17;;;28.27;;
77214;SDS011;66210;53.282;9.864;2023-09-12T05:23:57;37.30;;;23.75;;
77214;SDS011;66210;53.282;9.864;2023-09-12T05:26:24;37.30;;;24.60;;
77214;SDS011;66210;53.282;9.864;2023-09-12T05:28:51;32.60;;;22.25;;
77214;SDS011;66210;53.282;9.864;2023-09-12T05:31:17;37.08;;;22.70;;
77214;SDS011;66210;53.282;9.864;2023-09-12T05:33:44;36.40;;;22.38;;
77214;SDS011;66210;53.282;9.864;2023-09-12T05:36:11;30.42;;;20.42;;
77214;SDS011;66210;53.282;9.864;2023-09-12T05:38:38;31.15;;;20.23;;
77214;SDS011;66210;53.282;9.864;2023-09-12T05:41:06;31.75;;;21.67;;
77214;SDS011;66210;53.282;9.864;2023-09-12T05:43:32;33.28;;;20.80;;
77214;SDS011;66210;53.282;9.864;2023-09-12T05:45:59;30.83;;;21.42;;
77214;SDS011;66210;53.282;9.864;2023-09-12T05:48:26;28.67;;;20.10;;
77214;SDS011;66210;53.282;9.864;2023-09-12T05:50:53;26.05;;;16.90;;
77214;SDS011;66210;53.282;9.864;2023-09-12T05:53:20;27.80;;;19.02;;
77214;SDS011;66210;53.282;9.864;2023-09-12T05:55:47;31.05;;;20.40;;
77214;SDS011;66210;53.282;9.864;2023-09-12T05:58:13;26.52;;;18.25;;
77214;SDS011;66210;53.282;9.864;2023-09-12T06:00:40;26.52;;;18.27;;
77214;SDS011;66210;53.282;9.864;2023-09-12T06:03:07;27.20;;;17.88;;
77214;SDS011;66210;53.282;9.864;2023-09-12T06:05:34;29.65;;;18.77;;
77214;SDS011;66210;53.282;9.864;2023-09-12T06:08:01;30.45;;;19.65;;
77214;SDS011;66210;53.282;9.864;2023-09-12T06:10:28;19.55;;;14.32;;
77214;SDS011;66210;53.282;9.864;2023-09-12T06:12:55;26.42;;;17.98;;
77214;SDS011;66210;53.282;9.864;2023-09-12T06:15:22;26.17;;;16.73;;
77214;SDS011;66210;53.282;9.864;2023-09-12T06:17:49;26.20;;;16.85;;
77214;SDS011;66210;53.282;9.864;2023-09-12T06:20:16;28.20;;;17.35;;
77214;SDS011;66210;53.282;9.864;2023-09-12T06:22:43;23.63;;;14.68;;
77214;SDS011;66210;53.282;9.864;2023-09-12T06:25:10;27.05;;;18.38;;
77214;SDS011;66210;53.282;9.864;2023-09-12T06:27:37;25.23;;;17.50;;
77214;SDS011;66210;53.282;9.864;2023-09-12T06:30:03;25.00;;;16.85;;
77214;SDS011;66210;53.282;9.864;2023-09-12T06:32:31;28.98;;;17.27;;
77214;SDS011;66210;53.282;9.864;2023-09-12T06:34:58;27.40;;;18.27;;
77214;SDS011;66210;53.282;9.864;2023-09-12T06:37:25;33.05;;;20.65;;
77214;SDS011;66210;53.282;9.864;2023-09-12T06:39:52;25.88;;;18.02;;
77214;SDS011;66210;53.282;9.864;2023-09-12T06:42:19;32.80;;;20.83;;
77214;SDS011;66210;53.282;9.864;2023-09-12T06:44:45;29.75;;;19.40;;
77214;SDS011;66210;53.282;9.864;2023-09-12T06:47:13;32.60;;;20.98;;
77214;SDS011;66210;53.282;9.864;2023-09-12T06:49:39;32.90;;;21.42;;
77214;SDS011;66210;53.282;9.864;2023-09-12T06:52:06;33.90;;;22.17;;
77214;SDS011;66210;53.282;9.864;2023-09-12T06:54:33;31.00;;;20.60;;
77214;SDS011;66210;53.282;9.864;2023-09-12T06:57:00;35.28;;;22.65;;
77214;SDS011;66210;53.282;9.864;2023-09-12T06:59:26;44.92;;;25.05;;
77214;SDS011;66210;53.282;9.864;2023-09-12T07:01:53;46.42;;;24.33;;
77214;SDS011;66210;53.282;9.864;2023-09-12T07:04:20;65.40;;;26.67;;
77214;SDS011;66210;53.282;9.864;2023-09-12T07:06:47;33.60;;;22.38;;
77214;SDS011;66210;53.282;9.864;2023-09-12T07:09:14;34.90;;;21.60;;
77214;SDS011;66210;53.282;9.864;2023-09-12T07:11:41;36.13;;;23.02;;
77214;SDS011;66210;53.282;9.864;2023-09-12T07:14:11;24.88;;;16.60;;
77214;SDS011;66210;53.282;9.864;2023-09-12T07:16:37;31.60;;;21.55;;
77214;SDS011;66210;53.282;9.864;2023-09-12T07:19:04;37.53;;;24.10;;
77214;SDS011;66210;53.282;9.864;2023-09-12T07:21:31;43.17;;;25.80;;
77214;SDS011;66210;53.282;9.864;2023-09-12T07:23:58;52.80;;;27.23;;
77214;SDS011;66210;53.282;9.864;2023-09-12T07:26:25;44.45;;;26.63;;
77214;SDS011;66210;53.282;9.864;2023-09-12T07:28:54;51.40;;;27.05;;
77214;SDS011;66210;53.282;9.864;2023-09-12T07:31:21;43.08;;;24.08;;
77214;SDS011;66210;53.282;9.864;2023-09-12T07:33:48;56.15;;;27.10;;
77214;SDS011;66210;53.282;9.864;2023-09-12T07:36:14;56.55;;;26.92;;
77214;SDS011;66210;53.282;9.864;2023-09-12T07:38:41;49.75;;;27.45;;
77214;SDS011;66210;53.282;9.864;2023-09-12T07:41:09;49.28;;;27.90;;
77214;SDS011;66210;53.282;9.864;2023-09-12T07:43:35;46.60;;;27.42;;
77214;SDS011;66210;53.282;9.864;2023-09-12T07:46:02;49.50;;;27.98;;
77214;SDS011;66210;53.282;9.864;2023-09-12T07:48:29;59.95;;;29.02;;
77214;SDS011;66210;53.282;9.864;2023-09-12T07:50:56;43.95;;;26.30;;
77214;SDS011;66210;53.282;9.864;2023-09-12T07:53:22;50.55;;;27.98;;
77214;SDS011;66210;53.282;9.864;2023-09-12T07:55:49;42.25;;;25.90;;
77214;SDS011;66210;53.282;9.864;2023-09-12T07:58:17;37.85;;;22.80;;
77214;SDS011;66210;53.282;9.864;2023-09-12T08:00:48;43.00;;;26.17;;
77214;SDS011;66210;53.282;9.864;2023-09-12T08:03:14;44.42;;;26.35;;
77214;SDS011;66210;53.282;9.864;2023-09-12T08:05:42;47.97;;;27.13;;
77214;SDS011;66210;53.282;9.864;2023-09-12T08:08:08;43.80;;;25.17;;
77214;SDS011;66210;53.282;9.864;2023-09-12T08:10:36;44.00;;;25.98;;
77214;SDS011;66210;53.282;9.864;2023-09-12T08:13:02;48.20;;;25.90;;
77214;SDS011;66210;53.282;9.864;2023-09-12T08:15:29;44.67;;;26.65;;
77214;SDS011;66210;53.282;9.864;2023-09-12T08:17:56;44.80;;;25.20;;
77214;SDS011;66210;53.282;9.864;2023-09-12T08:20:23;51.03;;;28.15;;
77214;SDS011;66210;53.282;9.864;2023-09-12T08:22:50;46.47;;;27.92;;
77214;SDS011;66210;53.282;9.864;2023-09-12T08:25:16;42.25;;;25.27;;
77214;SDS011;66210;53.282;9.864;2023-09-12T08:27:43;39.20;;;22.17;;
77214;SDS011;66210;53.282;9.864;2023-09-12T08:30:13;31.90;;;20.13;;
77214;SDS011;66210;53.282;9.864;2023-09-12T08:32:40;42.00;;;25.60;;
77214;SDS011;66210;53.282;9.864;2023-09-12T08:35:14;44.65;;;25.67;;
77214;SDS011;66210;53.282;9.864;2023-09-12T08:37:41;47.13;;;25.40;;
77214;SDS011;66210;53.282;9.864;2023-09-12T08:40:09;36.63;;;23.38;;
77214;SDS011;66210;53.282;9.864;2023-09-12T08:42:39;39.38;;;23.05;;
77214;SDS011;66210;53.282;9.864;2023-09-12T08:45:13;30.27;;;19.55;;
77214;SDS011;66210;53.282;9.864;2023-09-12T08:47:42;37.28;;;23.02;;
77214;SDS011;66210;53.282;9.864;2023-09-12T08:50:12;39.33;;;24.27;;
77214;SDS011;66210;53.282;9.864;2023-09-12T08:52:40;35.40;;;22.52;;
77214;SDS011;66210;53.282;9.864;2023-09-12T08:55:28;35.70;;;24.08;;
77214;SDS011;66210;53.282;9.864;2023-09-12T08:57:55;27.23;;;18.00;;
77214;SDS011;66210;53.282;9.864;2023-09-12T09:00:24;31.08;;;20.17;;
77214;SDS011;66210;53.282;9.864;2023-09-12T09:02:53;31.63;;;21.38;;
77214;SDS011;66210;53.282;9.864;2023-09-12T09:05:20;25.33;;;16.35;;
77214;SDS011;66210;53.282;9.864;2023-09-12T09:07:49;30.40;;;19.50;;
77214;SDS011;66210;53.282;9.864;2023-09-12T09:10:18;32.67;;;20.02;;
77214;SDS011;66210;53.282;9.864;2023-09-12T09:13:03;27.85;;;18.88;;
77214;SDS011;66210;53.282;9.864;2023-09-12T09:15:32;26.45;;;17.35;;
77214;SDS011;66210;53.282;9.864;2023-09-12T09:18:01;30.55;;;20.33;;
77214;SDS011;66210;53.282;9.864;2023-09-12T09:20:30;25.75;;;18.38;;
77214;SDS011;66210;53.282;9.864;2023-09-12T09:22:58;28.55;;;20.00;;
77214;SDS011;66210;53.282;9.864;2023-09-12T09:25:38;24.92;;;17.02;;
77214;SDS011;66210;53.282;9.864;2023-09-12T09:28:16;29.58;;;18.38;;
77214;SDS011;66210;53.282;9.864;2023-09-12T09:30:45;26.05;;;17.52;;
77214;SDS011;66210;53.282;9.864;2023-09-12T09:33:13;24.38;;;16.75;;
77214;SDS011;66210;53.282;9.864;2023-09-12T09:35:41;25.38;;;17.88;;
77214;SDS011;66210;53.282;9.864;2023-09-12T09:38:08;20.48;;;16.35;;
77214;SDS011;66210;53.282;9.864;2023-09-12T09:40:35;26.42;;;18.05;;
77214;SDS011;66210;53.282;9.864;2023-09-12T09:43:03;24.60;;;17.25;;
77214;SDS011;66210;53.282;9.864;2023-09-12T09:45:30;23.92;;;17.45;;
77214;SDS011;66210;53.282;9.864;2023-09-12T09:48:04;25.48;;;17.50;;
77214;SDS011;66210;53.282;9.864;2023-09-12T09:50:33;23.90;;;16.48;;
77214;SDS011;66210;53.282;9.864;2023-09-12T09:53:03;25.73;;;18.05;;
77214;SDS011;66210;53.282;9.864;2023-09-12T09:55:31;24.45;;;16.95;;
77214;SDS011;66210;53.282;9.864;2023-09-12T10:00:28;26.95;;;18.38;;
77214;SDS011;66210;53.282;9.864;2023-09-12T10:02:55;20.88;;;15.75;;
77214;SDS011;66210;53.282;9.864;2023-09-12T10:05:23;22.05;;;15.10;;
77214;SDS011;66210;53.282;9.864;2023-09-12T10:07:51;21.48;;;15.32;;
77214;SDS011;66210;53.282;9.864;2023-09-12T10:10:20;22.48;;;14.15;;
77214;SDS011;66210;53.282;9.864;2023-09-12T10:12:51;17.52;;;11.77;;
77214;SDS011;66210;53.282;9.864;2023-09-12T10:15:22;21.38;;;15.52;;
77214;SDS011;66210;53.282;9.864;2023-09-12T10:17:51;20.08;;;14.07;;
77214;SDS011;66210;53.282;9.864;2023-09-12T10:20:24;18.73;;;12.52;;
77214;SDS011;66210;53.282;9.864;2023-09-12T10:23:00;17.27;;;11.23;;
77214;SDS011;66210;53.282;9.864;2023-09-12T10:25:35;16.25;;;11.25;;
77214;SDS011;66210;53.282;9.864;2023-09-12T10:28:05;18.08;;;11.50;;
77214;SDS011;66210;53.282;9.864;2023-09-12T10:30:32;13.48;;;10.43;;
77214;SDS011;66210;53.282;9.864;2023-09-12T10:33:01;17.02;;;10.30;;
77214;SDS011;66210;53.282;9.864;2023-09-12T10:35:30;14.80;;;10.10;;
77214;SDS011;66210;53.282;9.864;2023-09-12T10:38:02;16.00;;;10.18;;
77214;SDS011;66210;53.282;9.864;2023-09-12T10:40:34;17.13;;;10.38;;
77214;SDS011;66210;53.282;9.864;2023-09-12T10:43:08;13.48;;;9.60;;
77214;SDS011;66210;53.282;9.864;2023-09-12T10:45:38;14.65;;;10.20;;
77214;SDS011;66210;53.282;9.864;2023-09-12T10:48:05;15.55;;;9.88;;
77214;SDS011;66210;53.282;9.864;2023-09-12T10:50:32;13.68;;;9.68;;
77214;SDS011;66210;53.282;9.864;2023-09-12T10:53:11;12.02;;;9.07;;
77214;SDS011;66210;53.282;9.864;2023-09-12T10:55:39;12.15;;;9.60;;
77214;SDS011;66210;53.282;9.864;2023-09-12T10:58:07;11.52;;;8.95;;
77214;SDS011;66210;53.282;9.864;2023-09-12T11:00:36;13.15;;;8.63;;
77214;SDS011;66210;53.282;9.864;2023-09-12T11:05:54;14.65;;;9.40;;
77214;SDS011;66210;53.282;9.864;2023-09-12T11:08:22;12.60;;;8.88;;
77214;SDS011;66210;53.282;9.864;2023-09-12T11:13:47;10.98;;;8.00;;
77214;SDS011;66210;53.282;9.864;2023-09-12T11:16:29;11.88;;;8.27;;
77214;SDS011;66210;53.282;9.864;2023-09-12T11:21:50;12.80;;;8.00;;
77214;SDS011;66210;53.282;9.864;2023-09-12T11:24:18;10.90;;;7.22;;
77214;SDS011;66210;53.282;9.864;2023-09-12T11:26:56;13.65;;;8.55;;
77214;SDS011;66210;53.282;9.864;2023-09-12T11:29:27;10.05;;;7.63;;
77214;SDS011;66210;53.282;9.864;2023-09-12T11:31:57;13.20;;;8.75;;
77214;SDS011;66210;53.282;9.864;2023-09-12T11:34:25;10.80;;;8.20;;
77214;SDS011;66210;53.282;9.864;2023-09-12T11:36:57;10.45;;;7.75;;
77214;SDS011;66210;53.282;9.864;2023-09-12T11:39:29;13.88;;;8.65;;
77214;SDS011;66210;53.282;9.864;2023-09-12T11:41:57;13.80;;;9.05;;
77214;SDS011;66210;53.282;9.864;2023-09-12T11:44:25;10.82;;;7.45;;
77214;SDS011;66210;53.282;9.864;2023-09-12T11:46:53;11.27;;;7.72;;
77214;SDS011;66210;53.282;9.864;2023-09-12T11:49:21;11.85;;;8.63;;
77214;SDS011;66210;53.282;9.864;2023-09-12T11:54:17;13.70;;;8.30;;
77214;SDS011;66210;53.282;9.864;2023-09-12T11:56:48;9.68;;;6.90;;
77214;SDS011;66210;53.282;9.864;2023-09-12T11:59:16;13.07;;;8.38;;
77214;SDS011;66210;53.282;9.864;2023-09-12T12:01:48;8.73;;;6.20;;
77214;SDS011;66210;53.282;9.864;2023-09-12T12:04:15;9.52;;;7.35;;
77214;SDS011;66210;53.282;9.864;2023-09-12T12:06:42;14.07;;;9.65;;
77214;SDS011;66210;53.282;9.864;2023-09-12T12:09:10;13.93;;;9.63;;
77214;SDS011;66210;53.282;9.864;2023-09-12T12:11:37;14.60;;;10.23;;
77214;SDS011;66210;53.282;9.864;2023-09-12T12:14:15;12.80;;;9.55;;
77214;SDS011;66210;53.282;9.864;2023-09-12T12:16:43;11.75;;;8.85;;
77214;SDS011;66210;53.282;9.864;2023-09-12T12:19:11;12.85;;;10.00;;
77214;SDS011;66210;53.282;9.864;2023-09-12T12:21:40;15.18;;;9.38;;
77214;SDS011;66210;53.282;9.864;2023-09-12T12:24:09;11.18;;;9.10;;
77214;SDS011;66210;53.282;9.864;2023-09-12T12:26:42;12.50;;;9.18;;
77214;SDS011;66210;53.282;9.864;2023-09-12T12:29:10;12.57;;;9.38;;
77214;SDS011;66210;53.282;9.864;2023-09-12T12:31:37;14.88;;;9.93;;
77214;SDS011;66210;53.282;9.864;2023-09-12T12:34:04;14.93;;;9.38;;
77214;SDS011;66210;53.282;9.864;2023-09-12T12:36:52;14.88;;;9.55;;
77214;SDS011;66210;53.282;9.864;2023-09-12T12:39:24;13.32;;;9.10;;
77214;SDS011;66210;53.282;9.864;2023-09-12T12:41:52;10.70;;;9.35;;
77214;SDS011;66210;53.282;9.864;2023-09-12T12:44:20;13.63;;;8.98;;
77214;SDS011;66210;53.282;9.864;2023-09-12T12:46:49;12.18;;;9.10;;
77214;SDS011;66210;53.282;9.864;2023-09-12T12:49:22;15.93;;;9.18;;
77214;SDS011;66210;53.282;9.864;2023-09-12T12:51:49;11.82;;;9.02;;
77214;SDS011;66210;53.282;9.864;2023-09-12T12:54:17;14.35;;;9.52;;
77214;SDS011;66210;53.282;9.864;2023-09-12T12:56:48;12.85;;;9.40;;
77214;SDS011;66210;53.282;9.864;2023-09-12T12:59:15;12.18;;;8.85;;
77214;SDS011;66210;53.282;9.864;2023-09-12T13:01:43;13.23;;;9.57;;
77214;SDS011;66210;53.282;9.864;2023-09-12T13:04:10;11.85;;;8.48;;
77214;SDS011;66210;53.282;9.864;2023-09-12T13:06:38;10.05;;;8.57;;
77214;SDS011;66210;53.282;9.864;2023-09-12T13:09:06;11.20;;;8.20;;
77214;SDS011;66210;53.282;9.864;2023-09-12T13:11:33;12.40;;;8.32;;
77214;SDS011;66210;53.282;9.864;2023-09-12T13:14:03;12.30;;;7.97;;
77214;SDS011;66210;53.282;9.864;2023-09-12T13:16:37;13.20;;;8.95;;
77214;SDS011;66210;53.282;9.864;2023-09-12T13:19:07;11.43;;;8.73;;
77214;SDS011;66210;53.282;9.864;2023-09-12T13:21:33;9.73;;;8.13;;
77214;SDS011;66210;53.282;9.864;2023-09-12T13:24:01;13.50;;;8.57;;
77214;SDS011;66210;53.282;9.864;2023-09-12T13:26:28;12.95;;;8.55;;
77214;SDS011;66210;53.282;9.864;2023-09-12T13:28:56;11.60;;;8.40;;
77214;SDS011;66210;53.282;9.864;2023-09-12T13:31:24;11.00;;;7.72;;
77214;SDS011;66210;53.282;9.864;2023-09-12T13:33:51;8.75;;;7.05;;
77214;SDS011;66210;53.282;9.864;2023-09-12T13:36:18;9.13;;;7.25;;
77214;SDS011;66210;53.282;9.864;2023-09-12T13:38:44;11.60;;;7.88;;
77214;SDS011;66210;53.282;9.864;2023-09-12T13:41:14;12.02;;;6.88;;
77214;SDS011;66210;53.282;9.864;2023-09-12T13:43:41;9.25;;;7.57;;
77214;SDS011;66210;53.282;9.864;2023-09-12T13:46:08;9.90;;;6.25;;
77214;SDS011;66210;53.282;9.864;2023-09-12T13:48:37;13.23;;;7.72;;
77214;SDS011;66210;53.282;9.864;2023-09-12T13:51:04;9.05;;;6.32;;
77214;SDS011;66210;53.282;9.864;2023-09-12T13:53:31;10.63;;;7.70;;
77214;SDS011;66210;53.282;9.864;2023-09-12T13:55:58;11.00;;;7.05;;
77214;SDS011;66210;53.282;9.864;2023-09-12T13:58:47;7.65;;;6.32;;
77214;SDS011;66210;53.282;9.864;2023-09-12T14:01:15;8.45;;;6.85;;
77214;SDS011;66210;53.282;9.864;2023-09-12T14:03:58;11.15;;;8.02;;
77214;SDS011;66210;53.282;9.864;2023-09-12T14:06:26;11.55;;;7.93;;
77214;SDS011;66210;53.282;9.864;2023-09-12T14:08:53;16.38;;;7.78;;
77214;SDS011;66210;53.282;9.864;2023-09-12T14:11:20;8.77;;;7.05;;
77214;SDS011;66210;53.282;9.864;2023-09-12T14:13:57;9.77;;;8.52;;
77214;SDS011;66210;53.282;9.864;2023-09-12T14:16:38;11.07;;;8.18;;
77214;SDS011;66210;53.282;9.864;2023-09-12T14:19:07;9.43;;;7.50;;
77214;SDS011;66210;53.282;9.864;2023-09-12T14:21:35;8.57;;;7.28;;
77214;SDS011;66210;53.282;9.864;2023-09-12T14:24:04;10.55;;;7.80;;
77214;SDS011;66210;53.282;9.864;2023-09-12T14:26:31;9.65;;;6.38;;
77214;SDS011;66210;53.282;9.864;2023-09-12T14:28:58;10.45;;;7.57;;
77214;SDS011;66210;53.282;9.864;2023-09-12T14:31:26;10.23;;;8.07;;
77214;SDS011;66210;53.282;9.864;2023-09-12T14:33:52;9.88;;;8.00;;
77214;SDS011;66210;53.282;9.864;2023-09-12T14:36:19;13.63;;;9.05;;
77214;SDS011;66210;53.282;9.864;2023-09-12T14:38:46;12.40;;;7.80;;
77214;SDS011;66210;53.282;9.864;2023-09-12T14:41:13;9.73;;;7.90;;
77214;SDS011;66210;53.282;9.864;2023-09-12T14:43:41;10.75;;;8.52;;
77214;SDS011;66210;53.282;9.864;2023-09-12T14:46:08;9.18;;;7.20;;
77214;SDS011;66210;53.282;9.864;2023-09-12T14:48:36;9.18;;;7.45;;
77214;SDS011;66210;53.282;9.864;2023-09-12T14:51:09;9.02;;;7.35;;